Airfield :
LOGIN :

Register | Disclaimer

   EN    FR    IT 

 










Legend :    VFR   Marginal VFR   IFR   Intensive IFR   Very Intensive IFR
Visi :
Ceiling :
>= 8 km
>= 3000ft
5 to 8 km
1000 to 3000 ft
1500m to 5 km
500 to 1000 ft
800 to 1500m
200 to 500 ft
< 800m
< 200 ft
Symbols :   Thunderstorms  Fog  Heavy snow  Heavy precipitations  Wind > 20 kt
SIGMETs :     Misc.  Thunderstorms  Icing  Turbulence  Mountain Waves  Volcanic Ashes







- Airport Elevation : 505 ft
- IATA code : SXB
- Download approach charts


LFST - Strasbourg

CURRENT METAR :
  • 262100Z AUTO VRB01KT 9999 FEW009 SCT066 BKN092 13/11 Q1022 NOSIG

EXPIRED METARs :
  • 262030Z AUTO VRB03KT CAVOK 13/11 Q1022 NOSIG
  • 262000Z AUTO VRB01KT CAVOK 13/11 Q1022 NOSIG
  • 261930Z AUTO 00000KT CAVOK 13/11 Q1022 NOSIG
  • 261900Z AUTO VRB01KT CAVOK 13/12 Q1022 NOSIG
  • 261830Z AUTO 33002KT CAVOK 14/12 Q1022 NOSIG

TAF TAF LFST
Valid from the 26 at 18:00 until the 27 at 18:00 UTC


261700Z 2618/2718 VRB02KT CAVOK
TEMPO 2700/2709 4000 BR BKN005
PROB30
TEMPO 2703/2708 0800 BCFG VV///
No reported NOTAMs for that airfield.



MET'MAP, your aeronautical weather chart ! - Copyright ORBIFLY December 2007 - Disclaimer

ORBIFLY MET'MAP TEAM :

Programming & Development : Alexandra Zaïnal
Concept & Development : Baudouin d'Aumeries
Co-Development & Prog : Marc-Olivier Méhu
Technical & hardware support : Manuel Goepfert

Contact : metmap@orbifly.com




SOURCES & CREDITS :

   NOAA